sensor_id;sensor_type;location;lat;lon;timestamp;P1;durP1;ratioP1;P2;durP2;ratioP2
44126;SDS011;29786;50.798;7.302;2022-07-15T00:00:48;4.5;;;2.1;;
44126;SDS011;29786;50.798;7.302;2022-07-15T00:01:48;3.6;;;1.7;;
44126;SDS011;29786;50.798;7.302;2022-07-15T00:02:48;3.9;;;1.7;;
44126;SDS011;29786;50.798;7.302;2022-07-15T00:03:48;5.6;;;2;;
44126;SDS011;29786;50.798;7.302;2022-07-15T00:04:48;3.6;;;2;;
44126;SDS011;29786;50.798;7.302;2022-07-15T00:05:48;2.7;;;1.5;;
44126;SDS011;29786;50.798;7.302;2022-07-15T00:06:48;3.6;;;1.6;;
44126;SDS011;29786;50.798;7.302;2022-07-15T00:07:48;2.3;;;1.6;;
44126;SDS011;29786;50.798;7.302;2022-07-15T00:08:48;4;;;1.5;;
44126;SDS011;29786;50.798;7.302;2022-07-15T00:09:48;3.2;;;1.5;;
44126;SDS011;29786;50.798;7.302;2022-07-15T00:12:02;3.8;;;2;;
44126;SDS011;29786;50.798;7.302;2022-07-15T00:12:02;5.6;;;1.9;;
44126;SDS011;29786;50.798;7.302;2022-07-15T00:12:49;3.5;;;2.1;;
44126;SDS011;29786;50.798;7.302;2022-07-15T00:13:48;4.3;;;1.8;;
44126;SDS011;29786;50.798;7.302;2022-07-15T00:14:48;4.9;;;1.7;;
44126;SDS011;29786;50.798;7.302;2022-07-15T00:15:48;2.3;;;1.7;;
44126;SDS011;29786;50.798;7.302;2022-07-15T00:16:48;6.2;;;2;;
44126;SDS011;29786;50.798;7.302;2022-07-15T00:17:48;3.2;;;1.7;;
44126;SDS011;29786;50.798;7.302;2022-07-15T00:18:48;3.1;;;1.8;;
44126;SDS011;29786;50.798;7.302;2022-07-15T00:19:48;4.6;;;1.8;;
44126;SDS011;29786;50.798;7.302;2022-07-15T00:20:48;4.8;;;1.7;;
44126;SDS011;29786;50.798;7.302;2022-07-15T00:21:48;4.5;;;1.7;;
44126;SDS011;29786;50.798;7.302;2022-07-15T00:22:48;4;;;1.7;;
44126;SDS011;29786;50.798;7.302;2022-07-15T00:23:48;4;;;1.6;;
44126;SDS011;29786;50.798;7.302;2022-07-15T00:24:48;4.3;;;1.9;;
44126;SDS011;29786;50.798;7.302;2022-07-15T00:25:48;3.1;;;1.7;;
44126;SDS011;29786;50.798;7.302;2022-07-15T00:26:48;4.9;;;1.7;;
44126;SDS011;29786;50.798;7.302;2022-07-15T00:27:52;4.2;;;1.7;;
44126;SDS011;29786;50.798;7.302;2022-07-15T00:28:48;4.2;;;1.6;;
44126;SDS011;29786;50.798;7.302;2022-07-15T00:29:48;6.3;;;1.7;;
44126;SDS011;29786;50.798;7.302;2022-07-15T00:30:48;3.5;;;1.7;;
44126;SDS011;29786;50.798;7.302;2022-07-15T00:31:48;7.9;;;2;;
44126;SDS011;29786;50.798;7.302;2022-07-15T00:32:48;3.3;;;1.6;;
44126;SDS011;29786;50.798;7.302;2022-07-15T00:33:48;4.3;;;1.8;;
44126;SDS011;29786;50.798;7.302;2022-07-15T00:34:48;4.6;;;1.7;;
44126;SDS011;29786;50.798;7.302;2022-07-15T00:35:48;3.6;;;1.6;;
44126;SDS011;29786;50.798;7.302;2022-07-15T00:36:48;4.2;;;1.7;;
44126;SDS011;29786;50.798;7.302;2022-07-15T00:37:48;4.4;;;1.6;;
44126;SDS011;29786;50.798;7.302;2022-07-15T00:38:48;4.2;;;1.8;;
44126;SDS011;29786;50.798;7.302;2022-07-15T00:39:48;4.6;;;1.6;;
44126;SDS011;29786;50.798;7.302;2022-07-15T00:40:48;7.6;;;1.9;;
44126;SDS011;29786;50.798;7.302;2022-07-15T00:41:48;3.7;;;1.6;;
44126;SDS011;29786;50.798;7.302;2022-07-15T00:42:48;4.3;;;1.7;;
44126;SDS011;29786;50.798;7.302;2022-07-15T00:43:48;3.2;;;1.6;;
44126;SDS011;29786;50.798;7.302;2022-07-15T00:44:48;4.2;;;1.8;;
44126;SDS011;29786;50.798;7.302;2022-07-15T00:45:48;5.3;;;1.8;;
44126;SDS011;29786;50.798;7.302;2022-07-15T00:46:48;4.9;;;1.6;;
44126;SDS011;29786;50.798;7.302;2022-07-15T00:47:49;3.6;;;1.7;;
44126;SDS011;29786;50.798;7.302;2022-07-15T00:48:48;5.3;;;1.9;;
44126;SDS011;29786;50.798;7.302;2022-07-15T00:49:48;5.3;;;1.9;;
44126;SDS011;29786;50.798;7.302;2022-07-15T00:50:48;3;;;1.9;;
44126;SDS011;29786;50.798;7.302;2022-07-15T00:51:50;3.7;;;1.9;;
44126;SDS011;29786;50.798;7.302;2022-07-15T00:52:50;4.7;;;1.9;;
44126;SDS011;29786;50.798;7.302;2022-07-15T00:53:48;5.6;;;2.1;;
44126;SDS011;29786;50.798;7.302;2022-07-15T00:54:49;4.4;;;1.7;;
44126;SDS011;29786;50.798;7.302;2022-07-15T00:55:48;5.8;;;2.1;;
44126;SDS011;29786;50.798;7.302;2022-07-15T00:56:49;7.3;;;2.2;;
44126;SDS011;29786;50.798;7.302;2022-07-15T00:57:48;5;;;1.8;;
44126;SDS011;29786;50.798;7.302;2022-07-15T00:58:48;5.6;;;1.8;;
44126;SDS011;29786;50.798;7.302;2022-07-15T00:59:48;3.8;;;1.8;;
44126;SDS011;29786;50.798;7.302;2022-07-15T01:00:48;4.5;;;1.7;;
44126;SDS011;29786;50.798;7.302;2022-07-15T01:01:48;4.9;;;1.8;;
44126;SDS011;29786;50.798;7.302;2022-07-15T01:02:48;3.7;;;2.1;;
44126;SDS011;29786;50.798;7.302;2022-07-15T01:03:48;3.3;;;1.7;;
44126;SDS011;29786;50.798;7.302;2022-07-15T01:04:48;4.6;;;1.7;;
44126;SDS011;29786;50.798;7.302;2022-07-15T01:05:48;4.3;;;1.9;;
44126;SDS011;29786;50.798;7.302;2022-07-15T01:06:48;5.7;;;1.9;;
44126;SDS011;29786;50.798;7.302;2022-07-15T01:07:48;4.7;;;1.7;;
44126;SDS011;29786;50.798;7.302;2022-07-15T01:08:48;6;;;1.7;;
44126;SDS011;29786;50.798;7.302;2022-07-15T01:09:48;6.9;;;2;;
44126;SDS011;29786;50.798;7.302;2022-07-15T01:10:48;4.3;;;2.1;;
44126;SDS011;29786;50.798;7.302;2022-07-15T01:11:48;3.7;;;1.8;;
44126;SDS011;29786;50.798;7.302;2022-07-15T01:12:48;8.5;;;2;;
44126;SDS011;29786;50.798;7.302;2022-07-15T01:13:48;4.4;;;1.8;;
44126;SDS011;29786;50.798;7.302;2022-07-15T01:14:48;4.2;;;1.9;;
44126;SDS011;29786;50.798;7.302;2022-07-15T01:15:48;5;;;1.9;;
44126;SDS011;29786;50.798;7.302;2022-07-15T01:16:48;5.1;;;2.2;;
44126;SDS011;29786;50.798;7.302;2022-07-15T01:17:48;4.9;;;1.7;;
44126;SDS011;29786;50.798;7.302;2022-07-15T01:18:48;4.2;;;2.1;;
44126;SDS011;29786;50.798;7.302;2022-07-15T01:19:48;3.4;;;1.6;;
44126;SDS011;29786;50.798;7.302;2022-07-15T01:20:48;5.1;;;1.9;;
44126;SDS011;29786;50.798;7.302;2022-07-15T01:21:48;4.2;;;1.8;;
44126;SDS011;29786;50.798;7.302;2022-07-15T01:22:48;4.9;;;1.9;;
44126;SDS011;29786;50.798;7.302;2022-07-15T01:23:48;5.2;;;2;;
44126;SDS011;29786;50.798;7.302;2022-07-15T01:24:48;2.9;;;1.9;;
44126;SDS011;29786;50.798;7.302;2022-07-15T01:25:48;5.8;;;2.1;;
44126;SDS011;29786;50.798;7.302;2022-07-15T01:26:48;5.4;;;1.9;;
44126;SDS011;29786;50.798;7.302;2022-07-15T01:27:48;4.4;;;2;;
44126;SDS011;29786;50.798;7.302;2022-07-15T01:28:48;8.6;;;2;;
44126;SDS011;29786;50.798;7.302;2022-07-15T01:29:48;4.2;;;1.7;;
44126;SDS011;29786;50.798;7.302;2022-07-15T01:30:48;5.5;;;2.2;;
44126;SDS011;29786;50.798;7.302;2022-07-15T01:31:48;3.8;;;2.2;;
44126;SDS011;29786;50.798;7.302;2022-07-15T01:32:48;3.8;;;1.8;;
44126;SDS011;29786;50.798;7.302;2022-07-15T01:33:48;5.4;;;2.1;;
44126;SDS011;29786;50.798;7.302;2022-07-15T01:34:48;5.3;;;2.2;;
44126;SDS011;29786;50.798;7.302;2022-07-15T01:35:48;6.6;;;2.1;;
44126;SDS011;29786;50.798;7.302;2022-07-15T01:36:48;4.4;;;2;;
44126;SDS011;29786;50.798;7.302;2022-07-15T01:37:48;4.9;;;1.8;;
44126;SDS011;29786;50.798;7.302;2022-07-15T01:38:48;5.8;;;2.3;;
44126;SDS011;29786;50.798;7.302;2022-07-15T01:39:48;4.4;;;2.2;;
44126;SDS011;29786;50.798;7.302;2022-07-15T01:40:48;3.8;;;2;;
44126;SDS011;29786;50.798;7.302;2022-07-15T01:41:48;5;;;2.2;;
44126;SDS011;29786;50.798;7.302;2022-07-15T01:42:48;4.7;;;2;;
44126;SDS011;29786;50.798;7.302;2022-07-15T01:43:48;3.7;;;1.9;;
44126;SDS011;29786;50.798;7.302;2022-07-15T01:44:48;4.6;;;2;;
44126;SDS011;29786;50.798;7.302;2022-07-15T01:45:48;4;;;2.3;;
44126;SDS011;29786;50.798;7.302;2022-07-15T01:46:48;5.4;;;2.2;;
44126;SDS011;29786;50.798;7.302;2022-07-15T01:47:48;4.9;;;2.2;;
44126;SDS011;29786;50.798;7.302;2022-07-15T01:48:48;3.7;;;1.9;;
44126;SDS011;29786;50.798;7.302;2022-07-15T01:49:48;6.9;;;2;;
44126;SDS011;29786;50.798;7.302;2022-07-15T01:50:48;4.6;;;2.3;;
44126;SDS011;29786;50.798;7.302;2022-07-15T01:51:48;4.7;;;2.1;;
44126;SDS011;29786;50.798;7.302;2022-07-15T01:52:48;3.2;;;1.8;;
44126;SDS011;29786;50.798;7.302;2022-07-15T01:53:48;7.8;;;2.3;;
44126;SDS011;29786;50.798;7.302;2022-07-15T01:54:48;5.8;;;2.1;;
44126;SDS011;29786;50.798;7.302;2022-07-15T01:55:48;4.1;;;2.2;;
44126;SDS011;29786;50.798;7.302;2022-07-15T01:56:49;4.3;;;2;;
44126;SDS011;29786;50.798;7.302;2022-07-15T01:57:48;4.9;;;2.1;;
44126;SDS011;29786;50.798;7.302;2022-07-15T01:58:48;6.9;;;2.1;;
44126;SDS011;29786;50.798;7.302;2022-07-15T01:59:48;4.8;;;1.8;;
44126;SDS011;29786;50.798;7.302;2022-07-15T02:00:48;7.4;;;2.1;;
44126;SDS011;29786;50.798;7.302;2022-07-15T02:01:48;6.9;;;2.3;;
44126;SDS011;29786;50.798;7.302;2022-07-15T02:02:48;4.1;;;2;;
44126;SDS011;29786;50.798;7.302;2022-07-15T02:03:48;3.7;;;2.1;;
44126;SDS011;29786;50.798;7.302;2022-07-15T02:04:48;3.9;;;2;;
44126;SDS011;29786;50.798;7.302;2022-07-15T02:05:48;4;;;2.1;;
44126;SDS011;29786;50.798;7.302;2022-07-15T02:06:48;6.9;;;2.3;;
44126;SDS011;29786;50.798;7.302;2022-07-15T02:07:48;6;;;2.4;;
44126;SDS011;29786;50.798;7.302;2022-07-15T02:08:48;3.9;;;2.1;;
44126;SDS011;29786;50.798;7.302;2022-07-15T02:09:48;4.7;;;2;;
44126;SDS011;29786;50.798;7.302;2022-07-15T02:10:48;5.7;;;2.6;;
44126;SDS011;29786;50.798;7.302;2022-07-15T02:11:48;5.2;;;2.3;;
44126;SDS011;29786;50.798;7.302;2022-07-15T02:12:48;5.4;;;2.1;;
44126;SDS011;29786;50.798;7.302;2022-07-15T02:13:48;3.1;;;2;;
44126;SDS011;29786;50.798;7.302;2022-07-15T02:14:48;4.8;;;2.2;;
44126;SDS011;29786;50.798;7.302;2022-07-15T02:15:48;8.5;;;2.4;;
44126;SDS011;29786;50.798;7.302;2022-07-15T02:16:48;5;;;2.1;;
44126;SDS011;29786;50.798;7.302;2022-07-15T02:17:48;5.6;;;2.7;;
44126;SDS011;29786;50.798;7.302;2022-07-15T02:18:48;6.5;;;2.3;;
44126;SDS011;29786;50.798;7.302;2022-07-15T02:19:48;5.1;;;2.2;;
44126;SDS011;29786;50.798;7.302;2022-07-15T02:20:48;3.7;;;2.2;;
44126;SDS011;29786;50.798;7.302;2022-07-15T02:21:48;4.7;;;2.4;;
44126;SDS011;29786;50.798;7.302;2022-07-15T02:22:48;3.6;;;2.3;;
44126;SDS011;29786;50.798;7.302;2022-07-15T02:23:48;6.7;;;2.3;;
44126;SDS011;29786;50.798;7.302;2022-07-15T02:24:48;6.3;;;2.2;;
44126;SDS011;29786;50.798;7.302;2022-07-15T02:25:48;5.9;;;2.2;;
44126;SDS011;29786;50.798;7.302;2022-07-15T02:26:48;4.3;;;2.5;;
44126;SDS011;29786;50.798;7.302;2022-07-15T02:27:48;8;;;2.5;;
44126;SDS011;29786;50.798;7.302;2022-07-15T02:28:48;5.9;;;2.3;;
44126;SDS011;29786;50.798;7.302;2022-07-15T02:29:48;7.8;;;2.6;;
44126;SDS011;29786;50.798;7.302;2022-07-15T02:30:48;6.2;;;2.6;;
44126;SDS011;29786;50.798;7.302;2022-07-15T02:31:48;4.5;;;2.3;;
44126;SDS011;29786;50.798;7.302;2022-07-15T02:32:48;5.8;;;2.3;;
44126;SDS011;29786;50.798;7.302;2022-07-15T02:33:48;3.2;;;2.3;;
44126;SDS011;29786;50.798;7.302;2022-07-15T02:34:48;5.3;;;2.6;;
44126;SDS011;29786;50.798;7.302;2022-07-15T02:35:48;5.4;;;2.5;;
44126;SDS011;29786;50.798;7.302;2022-07-15T02:36:48;4.3;;;2.3;;
44126;SDS011;29786;50.798;7.302;2022-07-15T02:37:48;6.6;;;2.8;;
44126;SDS011;29786;50.798;7.302;2022-07-15T02:38:48;5.7;;;2.5;;
44126;SDS011;29786;50.798;7.302;2022-07-15T02:39:48;4.6;;;2.7;;
44126;SDS011;29786;50.798;7.302;2022-07-15T02:40:48;6.4;;;2.7;;
44126;SDS011;29786;50.798;7.302;2022-07-15T02:41:48;5.7;;;2.8;;
44126;SDS011;29786;50.798;7.302;2022-07-15T02:42:53;6.4;;;2.6;;
44126;SDS011;29786;50.798;7.302;2022-07-15T02:43:48;4.9;;;2.4;;
44126;SDS011;29786;50.798;7.302;2022-07-15T02:44:48;4.5;;;2.6;;
44126;SDS011;29786;50.798;7.302;2022-07-15T02:45:48;6.7;;;2.3;;
44126;SDS011;29786;50.798;7.302;2022-07-15T02:46:48;6.1;;;3.6;;
44126;SDS011;29786;50.798;7.302;2022-07-15T02:47:48;6;;;2.5;;
44126;SDS011;29786;50.798;7.302;2022-07-15T02:48:48;4.9;;;2.4;;
44126;SDS011;29786;50.798;7.302;2022-07-15T02:49:48;6.4;;;2.8;;
44126;SDS011;29786;50.798;7.302;2022-07-15T02:50:48;4.7;;;2.7;;
44126;SDS011;29786;50.798;7.302;2022-07-15T02:51:48;8;;;3.1;;
44126;SDS011;29786;50.798;7.302;2022-07-15T02:52:48;6.5;;;2.8;;
44126;SDS011;29786;50.798;7.302;2022-07-15T02:53:48;4.3;;;2.3;;
44126;SDS011;29786;50.798;7.302;2022-07-15T02:54:48;7.3;;;2.8;;
44126;SDS011;29786;50.798;7.302;2022-07-15T02:55:48;4.6;;;2.7;;
44126;SDS011;29786;50.798;7.302;2022-07-15T02:56:48;3.2;;;2.3;;
44126;SDS011;29786;50.798;7.302;2022-07-15T02:57:48;5.2;;;2.5;;
44126;SDS011;29786;50.798;7.302;2022-07-15T02:58:48;7.1;;;2.8;;
44126;SDS011;29786;50.798;7.302;2022-07-15T02:59:48;5.9;;;2.5;;
44126;SDS011;29786;50.798;7.302;2022-07-15T03:00:48;7;;;2.8;;
44126;SDS011;29786;50.798;7.302;2022-07-15T03:01:48;6.3;;;2.2;;
44126;SDS011;29786;50.798;7.302;2022-07-15T03:02:48;6.7;;;2.5;;
44126;SDS011;29786;50.798;7.302;2022-07-15T03:03:48;3.9;;;2.3;;
44126;SDS011;29786;50.798;7.302;2022-07-15T03:04:48;6.5;;;2.8;;
44126;SDS011;29786;50.798;7.302;2022-07-15T03:05:48;8;;;2.9;;
44126;SDS011;29786;50.798;7.302;2022-07-15T03:06:48;5.4;;;2.7;;
44126;SDS011;29786;50.798;7.302;2022-07-15T03:07:48;4.9;;;2.5;;
44126;SDS011;29786;50.798;7.302;2022-07-15T03:08:48;4.7;;;2.3;;
44126;SDS011;29786;50.798;7.302;2022-07-15T03:09:48;6.4;;;2.2;;
44126;SDS011;29786;50.798;7.302;2022-07-15T03:10:48;4.9;;;2.2;;
44126;SDS011;29786;50.798;7.302;2022-07-15T03:11:48;5.5;;;2.3;;
44126;SDS011;29786;50.798;7.302;2022-07-15T03:12:48;5.2;;;2.1;;
44126;SDS011;29786;50.798;7.302;2022-07-15T03:13:48;5.4;;;2.3;;
44126;SDS011;29786;50.798;7.302;2022-07-15T03:14:48;7.4;;;2.5;;
44126;SDS011;29786;50.798;7.302;2022-07-15T03:15:48;6.2;;;2.3;;
44126;SDS011;29786;50.798;7.302;2022-07-15T03:16:48;6.3;;;2.5;;
44126;SDS011;29786;50.798;7.302;2022-07-15T03:17:48;7.2;;;2.4;;
44126;SDS011;29786;50.798;7.302;2022-07-15T03:18:48;5.7;;;2.4;;
44126;SDS011;29786;50.798;7.302;2022-07-15T03:19:48;5.8;;;2.5;;
44126;SDS011;29786;50.798;7.302;2022-07-15T03:20:48;4.9;;;2.7;;
44126;SDS011;29786;50.798;7.302;2022-07-15T03:21:48;6.8;;;2.3;;
44126;SDS011;29786;50.798;7.302;2022-07-15T03:22:48;6;;;2.6;;
44126;SDS011;29786;50.798;7.302;2022-07-15T03:23:48;5.5;;;2.2;;
44126;SDS011;29786;50.798;7.302;2022-07-15T03:24:48;6.1;;;2.2;;
44126;SDS011;29786;50.798;7.302;2022-07-15T03:25:48;8.1;;;2.4;;
44126;SDS011;29786;50.798;7.302;2022-07-15T03:26:48;4.9;;;2.6;;
44126;SDS011;29786;50.798;7.302;2022-07-15T03:27:48;4.7;;;2.3;;
44126;SDS011;29786;50.798;7.302;2022-07-15T03:28:48;5.4;;;2.6;;
44126;SDS011;29786;50.798;7.302;2022-07-15T03:29:48;5.4;;;2.3;;
44126;SDS011;29786;50.798;7.302;2022-07-15T03:30:48;5;;;2.1;;
44126;SDS011;29786;50.798;7.302;2022-07-15T03:31:48;6;;;2.4;;
44126;SDS011;29786;50.798;7.302;2022-07-15T03:32:48;4;;;2.1;;
44126;SDS011;29786;50.798;7.302;2022-07-15T03:33:48;5.5;;;2.4;;
44126;SDS011;29786;50.798;7.302;2022-07-15T03:34:48;5.6;;;2.3;;
44126;SDS011;29786;50.798;7.302;2022-07-15T03:35:48;6.9;;;2.3;;
44126;SDS011;29786;50.798;7.302;2022-07-15T03:36:48;6.8;;;2.7;;
44126;SDS011;29786;50.798;7.302;2022-07-15T03:37:48;5.7;;;2.5;;
44126;SDS011;29786;50.798;7.302;2022-07-15T03:38:48;4.1;;;2.1;;
44126;SDS011;29786;50.798;7.302;2022-07-15T03:39:48;7.2;;;2.6;;
44126;SDS011;29786;50.798;7.302;2022-07-15T03:40:48;3.6;;;2.1;;
44126;SDS011;29786;50.798;7.302;2022-07-15T03:41:48;4.6;;;2;;
44126;SDS011;29786;50.798;7.302;2022-07-15T03:42:48;4.1;;;2;;
44126;SDS011;29786;50.798;7.302;2022-07-15T03:43:48;5.6;;;2.5;;
44126;SDS011;29786;50.798;7.302;2022-07-15T03:44:48;6.4;;;2.1;;
44126;SDS011;29786;50.798;7.302;2022-07-15T03:45:48;4.8;;;2.3;;
44126;SDS011;29786;50.798;7.302;2022-07-15T03:46:48;6.3;;;2.5;;
44126;SDS011;29786;50.798;7.302;2022-07-15T03:47:48;5.4;;;2.4;;
44126;SDS011;29786;50.798;7.302;2022-07-15T03:48:48;10.9;;;2.9;;
44126;SDS011;29786;50.798;7.302;2022-07-15T03:49:48;6.6;;;2.4;;
44126;SDS011;29786;50.798;7.302;2022-07-15T03:50:48;5.8;;;2.8;;
44126;SDS011;29786;50.798;7.302;2022-07-15T03:51:48;7.3;;;2.8;;
44126;SDS011;29786;50.798;7.302;2022-07-15T03:52:48;8.1;;;2.8;;
44126;SDS011;29786;50.798;7.302;2022-07-15T03:53:48;8.2;;;2.7;;
44126;SDS011;29786;50.798;7.302;2022-07-15T03:54:48;6.5;;;2.4;;
44126;SDS011;29786;50.798;7.302;2022-07-15T03:55:48;5.7;;;2.2;;
44126;SDS011;29786;50.798;7.302;2022-07-15T03:56:48;5.2;;;2.5;;
44126;SDS011;29786;50.798;7.302;2022-07-15T03:57:48;5.3;;;2.6;;
44126;SDS011;29786;50.798;7.302;2022-07-15T03:58:48;5.2;;;2.6;;
44126;SDS011;29786;50.798;7.302;2022-07-15T03:59:48;5.9;;;2.5;;
44126;SDS011;29786;50.798;7.302;2022-07-15T04:00:48;7.4;;;2.4;;
44126;SDS011;29786;50.798;7.302;2022-07-15T04:01:48;6.9;;;2.6;;
44126;SDS011;29786;50.798;7.302;2022-07-15T04:02:48;6.1;;;2.6;;
44126;SDS011;29786;50.798;7.302;2022-07-15T04:03:48;5.7;;;2.5;;
44126;SDS011;29786;50.798;7.302;2022-07-15T04:04:48;6.4;;;2.7;;
44126;SDS011;29786;50.798;7.302;2022-07-15T04:05:48;7.1;;;2.5;;
44126;SDS011;29786;50.798;7.302;2022-07-15T04:06:48;7.6;;;2.8;;
44126;SDS011;29786;50.798;7.302;2022-07-15T04:07:48;5.6;;;2.4;;
44126;SDS011;29786;50.798;7.302;2022-07-15T04:08:48;3.5;;;2.4;;
44126;SDS011;29786;50.798;7.302;2022-07-15T04:09:48;5;;;2.8;;
44126;SDS011;29786;50.798;7.302;2022-07-15T04:10:48;4.6;;;2.7;;
44126;SDS011;29786;50.798;7.302;2022-07-15T04:11:48;4.2;;;2.6;;
44126;SDS011;29786;50.798;7.302;2022-07-15T04:12:48;4.4;;;2.1;;
44126;SDS011;29786;50.798;7.302;2022-07-15T04:13:48;4.1;;;2.5;;
44126;SDS011;29786;50.798;7.302;2022-07-15T04:14:48;6.8;;;3.1;;
44126;SDS011;29786;50.798;7.302;2022-07-15T04:15:48;6;;;2.9;;
44126;SDS011;29786;50.798;7.302;2022-07-15T04:16:48;7;;;3.1;;
44126;SDS011;29786;50.798;7.302;2022-07-15T04:17:48;6.1;;;3.1;;
44126;SDS011;29786;50.798;7.302;2022-07-15T04:18:48;6.7;;;2.7;;
44126;SDS011;29786;50.798;7.302;2022-07-15T04:19:48;6.5;;;2.9;;
44126;SDS011;29786;50.798;7.302;2022-07-15T04:20:48;5;;;2.5;;
44126;SDS011;29786;50.798;7.302;2022-07-15T04:21:48;6.4;;;2.9;;
44126;SDS011;29786;50.798;7.302;2022-07-15T04:22:48;6.4;;;2.5;;
44126;SDS011;29786;50.798;7.302;2022-07-15T04:23:48;6.2;;;3;;
44126;SDS011;29786;50.798;7.302;2022-07-15T04:24:48;6.8;;;2.8;;
44126;SDS011;29786;50.798;7.302;2022-07-15T04:25:48;6.9;;;2.8;;
44126;SDS011;29786;50.798;7.302;2022-07-15T04:26:48;5.1;;;2.6;;
44126;SDS011;29786;50.798;7.302;2022-07-15T04:27:48;3.7;;;2.6;;
44126;SDS011;29786;50.798;7.302;2022-07-15T04:28:48;5.9;;;2.4;;
44126;SDS011;29786;50.798;7.302;2022-07-15T04:29:48;6.4;;;3.1;;
44126;SDS011;29786;50.798;7.302;2022-07-15T04:30:48;5.3;;;2.5;;
44126;SDS011;29786;50.798;7.302;2022-07-15T04:31:48;8.1;;;3.1;;
44126;SDS011;29786;50.798;7.302;2022-07-15T04:32:48;6.5;;;2.6;;
44126;SDS011;29786;50.798;7.302;2022-07-15T04:33:48;5.8;;;2.7;;
44126;SDS011;29786;50.798;7.302;2022-07-15T04:34:48;6.5;;;2.8;;
44126;SDS011;29786;50.798;7.302;2022-07-15T04:35:48;5.7;;;2.5;;
44126;SDS011;29786;50.798;7.302;2022-07-15T04:36:48;5.3;;;2.9;;
44126;SDS011;29786;50.798;7.302;2022-07-15T04:37:48;3.5;;;2.7;;
44126;SDS011;29786;50.798;7.302;2022-07-15T04:38:48;8;;;3.1;;
44126;SDS011;29786;50.798;7.302;2022-07-15T04:39:48;7;;;2.7;;
44126;SDS011;29786;50.798;7.302;2022-07-15T04:40:48;8.3;;;2.7;;
44126;SDS011;29786;50.798;7.302;2022-07-15T04:41:48;8.1;;;3;;
44126;SDS011;29786;50.798;7.302;2022-07-15T04:42:48;7.6;;;3;;
44126;SDS011;29786;50.798;7.302;2022-07-15T04:43:48;8.2;;;3.2;;
44126;SDS011;29786;50.798;7.302;2022-07-15T04:44:48;6.7;;;2.9;;
44126;SDS011;29786;50.798;7.302;2022-07-15T04:45:48;9;;;2.7;;
44126;SDS011;29786;50.798;7.302;2022-07-15T04:46:48;5.4;;;3.1;;
44126;SDS011;29786;50.798;7.302;2022-07-15T04:47:48;8.5;;;2.8;;
44126;SDS011;29786;50.798;7.302;2022-07-15T04:48:48;6;;;2.9;;
44126;SDS011;29786;50.798;7.302;2022-07-15T04:49:48;5.2;;;2.9;;
44126;SDS011;29786;50.798;7.302;2022-07-15T04:50:48;8.1;;;2.9;;
44126;SDS011;29786;50.798;7.302;2022-07-15T04:51:48;6.9;;;2.9;;
44126;SDS011;29786;50.798;7.302;2022-07-15T04:52:48;6.7;;;3.1;;
44126;SDS011;29786;50.798;7.302;2022-07-15T04:53:48;6;;;2.3;;
44126;SDS011;29786;50.798;7.302;2022-07-15T04:54:48;6.6;;;3.1;;
44126;SDS011;29786;50.798;7.302;2022-07-15T04:55:48;5.9;;;3.3;;
44126;SDS011;29786;50.798;7.302;2022-07-15T04:56:48;13.4;;;3.3;;
44126;SDS011;29786;50.798;7.302;2022-07-15T04:57:48;5.4;;;2.8;;
44126;SDS011;29786;50.798;7.302;2022-07-15T04:58:48;6.5;;;3;;
44126;SDS011;29786;50.798;7.302;2022-07-15T04:59:48;5.6;;;2.9;;
44126;SDS011;29786;50.798;7.302;2022-07-15T05:00:48;6.2;;;3.1;;
44126;SDS011;29786;50.798;7.302;2022-07-15T05:01:48;7;;;3.4;;
44126;SDS011;29786;50.798;7.302;2022-07-15T05:02:48;6.5;;;3;;
44126;SDS011;29786;50.798;7.302;2022-07-15T05:03:48;7.6;;;3;;
44126;SDS011;29786;50.798;7.302;2022-07-15T05:04:48;7.9;;;2.9;;
44126;SDS011;29786;50.798;7.302;2022-07-15T05:05:48;6.3;;;3;;
44126;SDS011;29786;50.798;7.302;2022-07-15T05:06:48;7.2;;;3.1;;
44126;SDS011;29786;50.798;7.302;2022-07-15T05:07:48;6;;;3;;
44126;SDS011;29786;50.798;7.302;2022-07-15T05:08:48;4.3;;;2.7;;
44126;SDS011;29786;50.798;7.302;2022-07-15T05:09:48;3.8;;;2.8;;
44126;SDS011;29786;50.798;7.302;2022-07-15T05:10:48;9.4;;;3.1;;
44126;SDS011;29786;50.798;7.302;2022-07-15T05:11:48;10.3;;;3;;
44126;SDS011;29786;50.798;7.302;2022-07-15T05:12:48;9.9;;;3.2;;
44126;SDS011;29786;50.798;7.302;2022-07-15T05:13:48;8;;;3.5;;
44126;SDS011;29786;50.798;7.302;2022-07-15T05:14:48;7.3;;;3;;
44126;SDS011;29786;50.798;7.302;2022-07-15T05:15:48;11.2;;;3.4;;
44126;SDS011;29786;50.798;7.302;2022-07-15T05:16:48;6.2;;;3.1;;
44126;SDS011;29786;50.798;7.302;2022-07-15T05:17:48;5.3;;;3.2;;
44126;SDS011;29786;50.798;7.302;2022-07-15T05:18:48;5.9;;;2.9;;
44126;SDS011;29786;50.798;7.302;2022-07-15T05:19:48;7.6;;;2.9;;
44126;SDS011;29786;50.798;7.302;2022-07-15T05:20:48;6.5;;;3.1;;
44126;SDS011;29786;50.798;7.302;2022-07-15T05:21:48;6.5;;;2.9;;
44126;SDS011;29786;50.798;7.302;2022-07-15T05:22:48;6.7;;;3;;
44126;SDS011;29786;50.798;7.302;2022-07-15T05:23:48;6.8;;;2.8;;
44126;SDS011;29786;50.798;7.302;2022-07-15T05:24:48;8;;;3.2;;
44126;SDS011;29786;50.798;7.302;2022-07-15T05:25:48;7.5;;;2.7;;
44126;SDS011;29786;50.798;7.302;2022-07-15T05:26:48;4.2;;;2.5;;
44126;SDS011;29786;50.798;7.302;2022-07-15T05:27:48;8.3;;;3.2;;
44126;SDS011;29786;50.798;7.302;2022-07-15T05:28:48;8;;;2.9;;
44126;SDS011;29786;50.798;7.302;2022-07-15T05:29:48;5.2;;;2.5;;
44126;SDS011;29786;50.798;7.302;2022-07-15T05:30:48;11.8;;;2.8;;
44126;SDS011;29786;50.798;7.302;2022-07-15T05:31:48;7.6;;;2.9;;
44126;SDS011;29786;50.798;7.302;2022-07-15T05:32:48;8.2;;;2.7;;
44126;SDS011;29786;50.798;7.302;2022-07-15T05:33:48;8.6;;;3.3;;
44126;SDS011;29786;50.798;7.302;2022-07-15T05:34:48;6.9;;;2.8;;
44126;SDS011;29786;50.798;7.302;2022-07-15T05:35:48;8.5;;;3;;
44126;SDS011;29786;50.798;7.302;2022-07-15T05:36:48;6;;;2.6;;
44126;SDS011;29786;50.798;7.302;2022-07-15T05:37:48;5.4;;;3;;
44126;SDS011;29786;50.798;7.302;2022-07-15T05:38:48;7.4;;;3.1;;
44126;SDS011;29786;50.798;7.302;2022-07-15T05:39:48;6.1;;;2.7;;
44126;SDS011;29786;50.798;7.302;2022-07-15T05:40:48;6.8;;;3.3;;
44126;SDS011;29786;50.798;7.302;2022-07-15T05:41:48;7.5;;;2.9;;
44126;SDS011;29786;50.798;7.302;2022-07-15T05:42:48;7.7;;;2.9;;
44126;SDS011;29786;50.798;7.302;2022-07-15T05:43:48;6.8;;;2.9;;
44126;SDS011;29786;50.798;7.302;2022-07-15T05:44:48;8.6;;;2.9;;
44126;SDS011;29786;50.798;7.302;2022-07-15T05:45:48;7.3;;;2.7;;
44126;SDS011;29786;50.798;7.302;2022-07-15T05:46:48;6.7;;;3.1;;
44126;SDS011;29786;50.798;7.302;2022-07-15T05:47:48;6.4;;;2.9;;
44126;SDS011;29786;50.798;7.302;2022-07-15T05:48:48;11.9;;;2.9;;
44126;SDS011;29786;50.798;7.302;2022-07-15T05:49:48;7.3;;;2.9;;
44126;SDS011;29786;50.798;7.302;2022-07-15T05:50:48;8.4;;;2.7;;
44126;SDS011;29786;50.798;7.302;2022-07-15T05:51:48;9.2;;;2.9;;
44126;SDS011;29786;50.798;7.302;2022-07-15T05:52:48;8.3;;;3.3;;
44126;SDS011;29786;50.798;7.302;2022-07-15T05:53:48;9;;;3.2;;
44126;SDS011;29786;50.798;7.302;2022-07-15T05:54:48;8;;;2.7;;
44126;SDS011;29786;50.798;7.302;2022-07-15T05:55:48;7.8;;;2.6;;
44126;SDS011;29786;50.798;7.302;2022-07-15T05:56:48;6.7;;;2.4;;
44126;SDS011;29786;50.798;7.302;2022-07-15T05:57:48;7.1;;;2.7;;
44126;SDS011;29786;50.798;7.302;2022-07-15T05:58:48;6.3;;;2.7;;
44126;SDS011;29786;50.798;7.302;2022-07-15T05:59:48;9.5;;;2.9;;
44126;SDS011;29786;50.798;7.302;2022-07-15T06:00:49;9.6;;;2.9;;
44126;SDS011;29786;50.798;7.302;2022-07-15T06:01:48;6.9;;;2.6;;
44126;SDS011;29786;50.798;7.302;2022-07-15T06:02:48;8.2;;;2.8;;
44126;SDS011;29786;50.798;7.302;2022-07-15T06:03:48;7.3;;;2.4;;
44126;SDS011;29786;50.798;7.302;2022-07-15T06:04:48;10.6;;;3.3;;
44126;SDS011;29786;50.798;7.302;2022-07-15T06:05:48;8.9;;;3.3;;
44126;SDS011;29786;50.798;7.302;2022-07-15T06:06:48;7.7;;;3;;
44126;SDS011;29786;50.798;7.302;2022-07-15T06:07:48;5.9;;;2.2;;
44126;SDS011;29786;50.798;7.302;2022-07-15T06:08:48;5;;;2.4;;
44126;SDS011;29786;50.798;7.302;2022-07-15T06:09:48;8.2;;;2.2;;
44126;SDS011;29786;50.798;7.302;2022-07-15T06:10:48;8.9;;;2.7;;
44126;SDS011;29786;50.798;7.302;2022-07-15T06:11:48;7.6;;;2.5;;
44126;SDS011;29786;50.798;7.302;2022-07-15T06:12:48;7.6;;;2.7;;
44126;SDS011;29786;50.798;7.302;2022-07-15T06:13:48;7.9;;;2.7;;
44126;SDS011;29786;50.798;7.302;2022-07-15T06:14:48;8.8;;;2.8;;